This is the latest recevied weather packets stored in our database for station/object YD2APR-13. If no packets are shown the sender has not sent any weather packets the latest 10 day(s).
| Time | Temp. | Humidity | Pressure | Rain* | Wind** | Luminosity | Snow |
|---|---|---|---|---|---|---|---|
| 1777955219 | 32.78° C | 58% | 1015.8 hPa | - | - | - | - |
| 1777954619 | 32.78° C | 58% | 1015.9 hPa | - | - | - | - |
| 1777954020 | 33.33° C | 57% | 1016.1 hPa | - | - | - | - |
| 1777953419 | 31.67° C | 61% | 1016.2 hPa | - | - | - | - |
| 1777952819 | 32.22° C | 59% | 1016.3 hPa | - | - | - | - |
| 1777952221 | 32.22° C | 60% | 1016.4 hPa | - | - | - | - |
| 1777951619 | 32.22° C | 60% | 1016.4 hPa | - | - | - | - |
| 1777951020 | 30.56° C | 64% | 1016.5 hPa | - | - | - | - |
| 1777950419 | 30.56° C | 65% | 1016.6 hPa | - | - | - | - |
| 1777949819 | 31.11° C | 64% | 1016.7 hPa | - | - | - | - |
| 1777949219 | 30.56° C | 65% | 1016.6 hPa | - | - | - | - |
| 1777948619 | 30.56° C | 66% | 1016.5 hPa | - | - | - | - |
| 1777948020 | 29.44° C | 68% | 1016.6 hPa | - | - | - | - |
| 1777947419 | 28.89° C | 71% | 1016.7 hPa | - | - | - | - |
| 1777946821 | 29.44° C | 69% | 1016.7 hPa | - | - | - | - |
| 1777946219 | 28.33° C | 72% | 1016.8 hPa | - | - | - | - |
| 1777945620 | 27.22° C | 75% | 1016.8 hPa | - | - | - | - |
| 1777945019 | 27.22° C | 75% | 1016.6 hPa | - | - | - | - |
| 1777944419 | 26.67° C | 78% | 1016.5 hPa | - | - | - | - |
| 1777943819 | 26.67° C | 77% | 1016.4 hPa | - | - | - | - |
| 1777943219 | 27.22° C | 76% | 1016.3 hPa | - | - | - | - |
| 1777942619 | 27.78° C | 75% | 1016.3 hPa | - | - | - | - |
| 1777942019 | 27.22° C | 77% | 1016.2 hPa | - | - | - | - |
| 1777941419 | 26.11° C | 80% | 1016 hPa | - | - | - | - |
| 1777940820 | 25.56° C | 81% | 1015.8 hPa | - | - | - | - |
* Rain since midnight (hover to see other rain measurements)
** Current wind speed in m/s (hover to see current wind gust speed)